首页
METAR-TAF:

METAR-TAF

机场 :

Tri-Cities Regional Airport

布里斯托尔 / 约翰逊城 / 金斯波特, 田纳西州, 美国

纬度: 36-28-47N, 经度: 082-23-56W, 海拔: 463米

当前天气观测

该预报发布于1小时和3分钟前的08:53 UTC
静风
温度 17°C
湿度 94%
气压 1021 hPa
能見度: 16.1公里
天空无云

METAR: KTRI 260853Z 00000KT 10SM CLR 17/16 A3016 RMK AO2 SLP188 T01720161 53003

时间: 05:56 (09:56 UTC)

预报

该预报发布于4小时和36分钟前的05:20 UTC
预报有效从26日的 06点(UTC)到 27日的 06点(UTC)
风速节,风向
能見度: 10公里
天空无云
从 26日的 1600点(UTC)
风速12节,风向西转西南
能見度: 10公里
散云层高于5000英尺
从 27日的 0000点(UTC)
风速3节,风向西转西南
能見度: 10公里
散云层高于5000英尺

TAF: KTRI 260520Z 2606/2706 00000KT P6SM SKC FM261600 25012KT P6SM SCT050 FM270000 25003KT P6SM SCT050

超过4000个机场的气象观测和天气预报(METAR&TAF报告)。

可查询的气象台以黄色和红色小点在地图上表示。

将鼠标移到小点上方,可查看气象台名称。

然后点击查看天气观测和预报。

如需切换地图:点击带黑十字的绿色按钮放大地图;点击带横线的绿色按钮缩小地图;或者点击绿色箭头查看邻近地区的地图。


METAR-TAF: